createdAt,value
2019-05-03T00:01:07.604Z,51.68
2019-05-03T00:03:37.200Z,51.72
2019-05-03T00:06:06.975Z,52.04
2019-05-03T00:08:36.637Z,52.09
2019-05-03T00:11:06.303Z,51.84
2019-05-03T00:13:35.919Z,51.87
2019-05-03T00:16:07.256Z,51.91
2019-05-03T00:18:36.853Z,51.99
2019-05-03T00:21:06.526Z,52.11
2019-05-03T00:23:36.121Z,52.37
2019-05-03T00:26:06.012Z,52.67
2019-05-03T00:28:35.618Z,52.97
2019-05-03T00:31:05.406Z,53.02
2019-05-03T00:33:36.773Z,52.99
2019-05-03T00:36:11.659Z,52.97
2019-05-03T00:38:41.943Z,52.85
2019-05-03T00:41:12.226Z,52.76
2019-05-03T00:43:42.360Z,52.76
2019-05-03T00:46:12.613Z,52.86
2019-05-03T00:48:43.051Z,52.56
2019-05-03T00:51:12.779Z,52.06
2019-05-03T00:53:42.536Z,52.06
2019-05-03T00:56:12.355Z,52.31
2019-05-03T00:58:49.746Z,52.02
2019-05-03T01:01:19.648Z,52.11
2019-05-03T01:03:49.244Z,52.05
2019-05-03T01:06:18.863Z,52.12
2019-05-03T01:08:48.460Z,52.40
2019-05-03T01:11:18.104Z,52.53
2019-05-03T01:13:47.705Z,52.21
2019-05-03T01:16:18.949Z,52.87
2019-05-03T01:18:48.548Z,53.33
2019-05-03T01:21:18.173Z,54.71
2019-05-03T01:23:47.771Z,55.70
2019-05-03T01:26:17.373Z,56.85
2019-05-03T01:28:46.980Z,57.14
2019-05-03T01:31:16.581Z,57.25
2019-05-03T01:33:46.196Z,58.03
2019-05-03T01:36:15.789Z,58.64
2019-05-03T01:38:45.399Z,59.05
2019-05-03T01:41:14.999Z,59.64
2019-05-03T01:43:44.608Z,59.49
2019-05-03T01:46:14.231Z,59.65
2019-05-03T01:48:48.270Z,60.19
2019-05-03T01:51:25.358Z,60.38
2019-05-03T01:53:54.962Z,60.11
2019-05-03T01:56:24.913Z,60.32
2019-05-03T01:58:54.517Z,60.47
2019-05-03T02:01:25.765Z,60.58
2019-05-03T02:03:55.166Z,60.97
2019-05-03T02:06:24.755Z,60.01
2019-05-03T02:08:54.362Z,60.32
2019-05-03T02:11:24.046Z,59.48
2019-05-03T02:13:53.872Z,59.98
2019-05-03T02:16:23.470Z,60.22
2019-05-03T02:18:53.080Z,59.76
2019-05-03T02:21:22.677Z,59.87
2019-05-03T02:23:52.289Z,60.43
2019-05-03T02:26:22.723Z,59.51
2019-05-03T02:28:52.822Z,60.12
2019-05-03T02:31:23.385Z,60.04
2019-05-03T02:33:53.875Z,58.67
2019-05-03T02:36:23.566Z,57.52
2019-05-03T02:38:53.790Z,58.61
2019-05-03T02:41:23.979Z,56.39
2019-05-03T02:43:56.185Z,56.15
2019-05-03T02:46:45.262Z,56.13
2019-05-03T02:49:18.546Z,55.54
2019-05-03T02:51:48.134Z,54.63
2019-05-03T02:54:17.754Z,54.46
2019-05-03T02:56:47.362Z,55.83
2019-05-03T02:59:16.955Z,55.96
2019-05-03T03:01:47.517Z,54.98
2019-05-03T03:04:18.186Z,54.61
2019-05-03T03:06:49.444Z,54.65
2019-05-03T03:09:25.889Z,54.86
2019-05-03T03:11:57.883Z,55.03
2019-05-03T03:14:32.208Z,54.67
2019-05-03T03:17:06.667Z,54.58
2019-05-03T03:19:39.671Z,55.03
2019-05-03T03:22:11.440Z,54.85
2019-05-03T03:24:45.936Z,55.15
2019-05-03T03:27:20.244Z,55.21
2019-05-03T03:30:08.037Z,55.33
2019-05-03T03:32:41.198Z,55.71
2019-05-03T03:35:21.362Z,55.95
2019-05-03T03:37:48.447Z,56.00
2019-05-03T03:40:19.645Z,56.15
2019-05-03T03:42:51.071Z,55.95
2019-05-03T03:45:20.836Z,55.76
2019-05-03T03:47:56.207Z,56.09
2019-05-03T03:50:27.360Z,56.18
2019-05-03T03:53:00.923Z,56.26
2019-05-03T03:55:35.426Z,56.16
2019-05-03T03:58:06.450Z,56.79
2019-05-03T04:00:36.569Z,56.09
2019-05-03T04:03:06.916Z,55.85
2019-05-03T04:05:36.520Z,56.16
2019-05-03T04:08:06.123Z,55.22
2019-05-03T04:10:35.881Z,55.63
2019-05-03T04:13:07.524Z,55.21
2019-05-03T04:15:56.173Z,55.69
2019-05-03T04:18:37.476Z,55.52
2019-05-03T04:21:07.545Z,55.53
2019-05-03T04:23:38.077Z,55.66
2019-05-03T04:26:08.224Z,55.85
2019-05-03T04:28:39.126Z,56.02
2019-05-03T04:31:08.744Z,55.75
2019-05-03T04:33:39.099Z,55.90
2019-05-03T04:36:08.712Z,53.79
2019-05-03T04:38:38.313Z,53.31
2019-05-03T04:41:07.926Z,51.60
2019-05-03T04:43:38.001Z,51.30
2019-05-03T04:46:12.030Z,51.39
2019-05-03T04:48:41.635Z,50.65
2019-05-03T04:51:11.253Z,49.92
2019-05-03T04:53:45.330Z,49.13
2019-05-03T04:56:16.724Z,47.73
2019-05-03T04:58:45.841Z,47.99
2019-05-03T05:01:17.589Z,47.49
2019-05-03T05:03:47.185Z,47.55
2019-05-03T05:06:16.769Z,47.29
2019-05-03T05:08:46.358Z,46.89
2019-05-03T05:11:16.028Z,47.21
2019-05-03T05:13:48.474Z,47.13
2019-05-03T05:16:18.077Z,47.68
2019-05-03T05:18:49.324Z,47.01
2019-05-03T05:21:26.429Z,47.21
2019-05-03T05:24:05.567Z,47.72
2019-05-03T05:26:51.997Z,47.99
2019-05-03T05:29:26.031Z,48.33
2019-05-03T05:31:55.800Z,48.36
2019-05-03T05:34:25.483Z,48.34
2019-05-03T05:36:55.428Z,48.50
2019-05-03T05:39:25.056Z,48.38
2019-05-03T05:41:55.422Z,48.75
2019-05-03T05:44:25.144Z,48.54
2019-05-03T05:47:15.025Z,48.52
2019-05-03T05:49:46.302Z,48.24
2019-05-03T05:52:15.905Z,48.36
2019-05-03T05:54:47.131Z,48.55
2019-05-03T05:57:22.197Z,48.61
2019-05-03T05:59:54.483Z,48.84
2019-05-03T06:02:25.393Z,47.97
2019-05-03T06:04:55.098Z,48.00
2019-05-03T06:07:44.319Z,47.60
2019-05-03T06:10:16.714Z,47.53
2019-05-03T06:12:57.192Z,47.49
2019-05-03T06:15:34.374Z,47.00
2019-05-03T06:18:25.054Z,47.13
2019-05-03T06:21:14.826Z,47.31
2019-05-03T06:23:48.761Z,47.25
2019-05-03T06:26:36.267Z,46.10
2019-05-03T06:29:08.819Z,45.78
2019-05-03T06:31:41.117Z,45.98
2019-05-03T06:34:10.701Z,46.12
2019-05-03T06:36:41.864Z,45.26
2019-05-03T06:39:11.460Z,45.33
2019-05-03T06:41:41.055Z,45.14
2019-05-03T06:44:10.670Z,45.36
2019-05-03T06:46:45.464Z,45.25
2019-05-03T06:49:15.985Z,44.99
2019-05-03T06:51:49.706Z,44.78
2019-05-03T06:54:20.712Z,44.45
2019-05-03T06:56:48.324Z,44.44
2019-05-03T06:59:19.572Z,44.49
2019-05-03T07:01:56.943Z,43.79
2019-05-03T07:04:28.211Z,43.62
2019-05-03T07:07:17.850Z,43.26
2019-05-03T07:10:05.034Z,42.64
2019-05-03T07:12:54.558Z,42.58
2019-05-03T07:15:25.170Z,42.34
2019-05-03T07:17:55.615Z,42.14
2019-05-03T07:20:25.778Z,41.97
2019-05-03T07:22:56.482Z,41.77
2019-05-03T07:25:26.072Z,40.92
2019-05-03T07:27:55.849Z,40.09
2019-05-03T07:30:25.631Z,39.40
2019-05-03T07:32:56.880Z,38.48
2019-05-03T07:35:26.491Z,37.72
2019-05-03T07:37:56.082Z,37.82
2019-05-03T07:40:25.692Z,37.71
2019-05-03T07:42:55.716Z,37.45
2019-05-03T07:45:25.670Z,36.63
2019-05-03T07:47:56.068Z,34.38
2019-05-03T07:50:26.130Z,33.59
2019-05-03T07:52:55.980Z,33.32
2019-05-03T07:55:45.502Z,33.71
2019-05-03T07:58:16.207Z,34.30
2019-05-03T08:00:45.885Z,35.31
2019-05-03T08:03:15.631Z,36.02
2019-05-03T08:05:45.829Z,35.74
2019-05-03T08:08:15.437Z,36.35
2019-05-03T08:10:45.221Z,36.46
2019-05-03T08:13:15.279Z,36.02
2019-05-03T08:15:45.354Z,33.88
2019-05-03T08:18:15.462Z,33.70
2019-05-03T08:20:45.664Z,33.16
2019-05-03T08:23:26.811Z,33.67
2019-05-03T08:25:46.613Z,33.56
2019-05-03T08:28:16.209Z,32.53
2019-05-03T08:30:50.104Z,32.84
2019-05-03T08:33:37.269Z,32.99
2019-05-03T08:36:07.113Z,32.93
2019-05-03T08:38:36.720Z,33.40
2019-05-03T08:41:07.966Z,33.77
2019-05-03T08:43:37.840Z,34.07
2019-05-03T08:46:07.468Z,33.13
2019-05-03T08:48:37.059Z,33.46
2019-05-03T08:51:06.671Z,32.62
2019-05-03T08:53:36.278Z,31.89
2019-05-03T08:56:05.882Z,31.64
2019-05-03T08:58:35.473Z,31.19
2019-05-03T09:01:06.193Z,30.93
2019-05-03T09:03:38.317Z,30.85
2019-05-03T09:06:07.164Z,30.52
2019-05-03T09:08:36.742Z,30.86
2019-05-03T09:11:10.701Z,31.14
2019-05-03T09:13:48.653Z,30.37
2019-05-03T09:16:18.358Z,30.37
2019-05-03T09:18:48.059Z,30.18
2019-05-03T09:21:17.739Z,30.68
2019-05-03T09:23:47.359Z,31.06
2019-05-03T09:26:16.952Z,31.05
2019-05-03T09:28:46.559Z,30.04
2019-05-03T09:31:16.177Z,30.14
2019-05-03T09:33:45.767Z,30.27
2019-05-03T09:36:15.365Z,30.01
2019-05-03T09:38:45.849Z,29.58
2019-05-03T09:41:15.552Z,25.45
2019-05-03T09:43:45.300Z,22.37
2019-05-03T09:46:15.134Z,20.32
2019-05-03T09:48:45.587Z,18.69
2019-05-03T09:51:15.418Z,15.99
2019-05-03T09:53:46.648Z,15.45
2019-05-03T09:56:16.253Z,14.58
2019-05-03T09:58:46.228Z,16.09
2019-05-03T10:01:15.865Z,17.82
2019-05-03T10:03:45.443Z,20.08
2019-05-03T10:06:17.444Z,21.94
2019-05-03T10:08:46.399Z,23.45
2019-05-03T10:11:16.034Z,24.33
2019-05-03T10:13:48.223Z,23.99
2019-05-03T10:16:16.964Z,23.38
2019-05-03T10:18:46.568Z,21.79
2019-05-03T10:21:16.366Z,19.34
2019-05-03T10:23:45.966Z,16.04
2019-05-03T10:26:15.583Z,13.46
2019-05-03T10:28:45.345Z,15.11
2019-05-03T10:31:14.970Z,17.42
2019-05-03T10:33:46.216Z,18.71
2019-05-03T10:36:15.833Z,19.67
2019-05-03T10:38:46.311Z,20.86
2019-05-03T10:41:16.380Z,21.72
2019-05-03T10:43:45.993Z,20.16
2019-05-03T10:46:15.938Z,20.78
2019-05-03T10:48:45.874Z,20.58
2019-05-03T10:51:15.957Z,21.33
2019-05-03T10:53:47.485Z,21.99
2019-05-03T10:56:24.489Z,22.49
2019-05-03T10:58:55.073Z,22.81
2019-05-03T11:01:31.903Z,20.74
2019-05-03T11:04:01.533Z,17.37
2019-05-03T11:06:31.160Z,16.59
2019-05-03T11:09:02.434Z,14.16
2019-05-03T11:11:32.014Z,13.15
2019-05-03T11:14:01.655Z,14.68
2019-05-03T11:16:31.259Z,17.17
2019-05-03T11:19:00.878Z,19.35
2019-05-03T11:21:31.136Z,20.84
2019-05-03T11:24:00.858Z,21.09
2019-05-03T11:26:30.594Z,21.22
2019-05-03T11:29:00.651Z,21.67
2019-05-03T11:31:46.917Z,22.23
2019-05-03T11:34:18.786Z,21.98
2019-05-03T11:36:59.874Z,21.64
2019-05-03T11:39:29.494Z,20.68
2019-05-03T11:42:00.158Z,20.44
2019-05-03T11:44:38.392Z,18.45
2019-05-03T11:47:09.703Z,16.61
2019-05-03T11:49:39.327Z,13.48
2019-05-03T11:52:09.098Z,11.78
2019-05-03T11:54:38.718Z,12.42
2019-05-03T11:57:12.670Z,13.84
2019-05-03T11:59:42.273Z,14.69
2019-05-03T12:02:26.514Z,12.81
2019-05-03T12:04:56.718Z,12.90
2019-05-03T12:07:38.917Z,13.77
2019-05-03T12:10:15.134Z,12.95
2019-05-03T12:12:55.371Z,10.67
2019-05-03T12:15:25.169Z,8.79
2019-05-03T12:17:59.060Z,8.83
2019-05-03T12:20:29.238Z,11.23
2019-05-03T12:22:59.575Z,13.41
2019-05-03T12:25:30.313Z,14.80
2019-05-03T12:28:00.325Z,15.93
2019-05-03T12:30:29.978Z,17.05
2019-05-03T12:32:59.579Z,16.61
2019-05-03T12:35:29.189Z,15.92
2019-05-03T12:37:58.779Z,15.57
2019-05-03T12:40:28.392Z,16.29
2019-05-03T12:42:57.986Z,17.59
2019-05-03T12:45:27.613Z,18.53
2019-05-03T12:47:57.220Z,19.35
2019-05-03T12:50:26.837Z,20.08
2019-05-03T12:52:56.448Z,20.31
2019-05-03T12:55:26.059Z,20.50
2019-05-03T12:57:55.854Z,19.59
2019-05-03T13:00:39.334Z,18.98
2019-05-03T13:03:26.736Z,16.36
2019-05-03T13:05:56.491Z,16.72
2019-05-03T13:08:39.960Z,17.90
2019-05-03T13:11:09.720Z,18.87
2019-05-03T13:13:39.380Z,19.39
2019-05-03T13:16:10.726Z,20.19
2019-05-03T13:18:40.329Z,20.48
2019-05-03T13:21:09.942Z,19.81
2019-05-03T13:23:39.523Z,17.54
2019-05-03T13:26:09.113Z,16.92
2019-05-03T13:28:38.712Z,17.59
2019-05-03T13:31:08.302Z,17.99
2019-05-03T13:33:37.895Z,18.65
2019-05-03T13:36:07.610Z,18.97
2019-05-03T13:38:37.212Z,18.66
2019-05-03T13:41:06.883Z,16.00
2019-05-03T13:43:36.437Z,13.60
2019-05-03T13:46:06.699Z,11.73
2019-05-03T13:48:45.374Z,13.08
2019-05-03T13:51:07.683Z,14.81
2019-05-03T13:53:37.264Z,16.69
2019-05-03T13:56:07.047Z,17.91
2019-05-03T13:58:36.821Z,19.47
2019-05-03T14:01:06.506Z,20.47
2019-05-03T14:03:36.578Z,21.02
2019-05-03T14:06:08.335Z,21.79
2019-05-03T14:08:37.558Z,22.41
2019-05-03T14:11:07.152Z,23.46
2019-05-03T14:13:36.762Z,23.75
2019-05-03T14:16:06.866Z,25.83
2019-05-03T14:18:36.757Z,24.09
2019-05-03T14:21:24.457Z,24.12
2019-05-03T14:24:12.838Z,24.15
2019-05-03T14:26:44.803Z,24.02
2019-05-03T14:29:15.031Z,23.89
2019-05-03T14:31:45.414Z,23.55
2019-05-03T14:34:17.520Z,23.39
2019-05-03T14:36:46.608Z,23.59
2019-05-03T14:39:16.201Z,23.59
2019-05-03T14:41:46.891Z,23.68
2019-05-03T14:44:18.009Z,23.29
2019-05-03T14:46:47.877Z,23.68
2019-05-03T14:49:17.493Z,23.91
2019-05-03T14:51:47.087Z,23.95
2019-05-03T14:54:16.870Z,23.84
2019-05-03T14:56:48.407Z,23.97
2019-05-03T14:59:35.507Z,23.59
2019-05-03T15:02:10.624Z,23.19
2019-05-03T15:04:40.287Z,22.94
2019-05-03T15:07:09.894Z,22.98
2019-05-03T15:09:39.806Z,23.01
2019-05-03T15:12:09.414Z,22.58
2019-05-03T15:14:39.049Z,22.49
2019-05-03T15:17:08.675Z,22.89
2019-05-03T15:19:38.278Z,22.82
2019-05-03T15:22:07.882Z,23.05
2019-05-03T15:24:37.531Z,23.34
2019-05-03T15:27:07.099Z,23.65
2019-05-03T15:29:37.185Z,23.53
2019-05-03T15:32:06.798Z,23.38
2019-05-03T15:34:36.423Z,23.35
2019-05-03T15:37:06.300Z,23.81
2019-05-03T15:39:36.185Z,24.42
2019-05-03T15:42:05.841Z,24.72
2019-05-03T15:44:44.911Z,24.98
2019-05-03T15:47:31.019Z,25.07
2019-05-03T15:50:00.624Z,24.44
2019-05-03T15:52:30.260Z,24.40
2019-05-03T15:54:59.848Z,24.22
2019-05-03T15:57:29.485Z,24.42
2019-05-03T15:59:59.061Z,24.48
2019-05-03T16:02:28.667Z,24.70
2019-05-03T16:04:58.806Z,24.79
2019-05-03T16:07:28.464Z,24.95
2019-05-03T16:09:58.069Z,24.93
2019-05-03T16:12:27.776Z,24.95
2019-05-03T16:14:57.397Z,25.16
2019-05-03T16:17:27.000Z,25.26
2019-05-03T16:19:56.592Z,25.40
2019-05-03T16:22:26.282Z,25.47
2019-05-03T16:24:55.883Z,25.61
2019-05-03T16:27:27.901Z,25.49
2019-05-03T16:29:57.494Z,25.27
2019-05-03T16:32:27.108Z,25.60
2019-05-03T16:34:56.703Z,26.09
2019-05-03T16:37:26.297Z,26.07
2019-05-03T16:39:57.800Z,26.13
2019-05-03T16:42:27.226Z,26.26
2019-05-03T16:44:56.824Z,26.50
2019-05-03T16:47:26.429Z,26.57
2019-05-03T16:49:56.044Z,27.06
2019-05-03T16:52:25.794Z,27.42
2019-05-03T16:54:55.432Z,27.81
2019-05-03T16:57:25.046Z,28.12
2019-05-03T16:59:55.089Z,28.09
2019-05-03T17:02:24.737Z,28.03
2019-05-03T17:04:55.972Z,28.07
2019-05-03T17:07:27.233Z,28.15
2019-05-03T17:10:01.069Z,28.31
2019-05-03T17:12:32.308Z,28.26
2019-05-03T17:15:02.098Z,28.19
2019-05-03T17:17:31.684Z,28.31
2019-05-03T17:20:01.286Z,28.32
2019-05-03T17:22:30.890Z,28.39
2019-05-03T17:25:00.546Z,28.93
2019-05-03T17:27:30.150Z,29.13
2019-05-03T17:29:59.768Z,29.57
2019-05-03T17:32:29.376Z,29.74
2019-05-03T17:34:58.990Z,29.33
2019-05-03T17:37:28.597Z,29.37
2019-05-03T17:40:16.053Z,29.57
2019-05-03T17:42:59.270Z,29.80
2019-05-03T17:45:38.062Z,29.77
2019-05-03T17:48:07.803Z,29.97
2019-05-03T17:50:37.433Z,30.10
2019-05-03T17:53:26.994Z,30.42
2019-05-03T17:56:00.922Z,30.63
2019-05-03T17:58:41.025Z,30.92
2019-05-03T18:01:18.038Z,30.98
2019-05-03T18:03:49.291Z,31.33
2019-05-03T18:06:26.609Z,31.75
2019-05-03T18:09:09.918Z,32.30
2019-05-03T18:11:50.347Z,32.69
2019-05-03T18:14:19.942Z,32.80
2019-05-03T18:16:49.535Z,32.95
2019-05-03T18:19:19.156Z,32.97
2019-05-03T18:21:48.760Z,33.04
2019-05-03T18:24:18.384Z,33.20
2019-05-03T18:26:47.995Z,33.48
2019-05-03T18:29:17.613Z,33.48
2019-05-03T18:31:47.221Z,33.67
2019-05-03T18:34:19.897Z,33.82
2019-05-03T18:36:48.182Z,34.04
2019-05-03T18:39:17.788Z,33.89
2019-05-03T18:41:47.402Z,33.88
2019-05-03T18:44:18.659Z,34.00
2019-05-03T18:46:49.906Z,34.32
2019-05-03T18:49:19.503Z,34.66
2019-05-03T18:51:49.129Z,34.72
2019-05-03T18:54:18.717Z,35.12
2019-05-03T18:56:48.340Z,35.30
2019-05-03T18:59:17.928Z,35.66
2019-05-03T19:01:47.556Z,35.82
2019-05-03T19:04:31.296Z,35.94
2019-05-03T19:07:03.778Z,36.19
2019-05-03T19:09:34.894Z,36.32
2019-05-03T19:12:22.474Z,36.38
2019-05-03T19:14:52.067Z,36.82
2019-05-03T19:17:24.871Z,37.10
2019-05-03T19:19:58.181Z,37.53
2019-05-03T19:22:27.798Z,37.82
2019-05-03T19:24:57.446Z,38.03
2019-05-03T19:27:27.056Z,38.60
2019-05-03T19:29:56.660Z,38.75
2019-05-03T19:32:28.382Z,39.16
2019-05-03T19:34:57.580Z,39.39
2019-05-03T19:37:27.553Z,39.04
2019-05-03T19:39:57.156Z,38.81
2019-05-03T19:42:27.315Z,38.71
2019-05-03T19:44:57.206Z,38.53
2019-05-03T19:47:26.798Z,38.54
2019-05-03T19:49:56.397Z,38.79
2019-05-03T19:52:27.643Z,39.27
2019-05-03T19:54:57.234Z,39.59
2019-05-03T19:57:28.476Z,39.69
2019-05-03T19:59:58.065Z,39.87
2019-05-03T20:02:34.995Z,40.00
2019-05-03T20:05:15.234Z,39.96
2019-05-03T20:08:05.037Z,39.69
2019-05-03T20:10:35.120Z,39.45
2019-05-03T20:13:05.089Z,39.13
2019-05-03T20:15:34.686Z,38.89
2019-05-03T20:18:04.883Z,38.93
2019-05-03T20:20:34.560Z,38.82
2019-05-03T20:23:05.252Z,38.72
2019-05-03T20:25:35.253Z,38.62
2019-05-03T20:28:05.243Z,38.60
2019-05-03T20:30:35.217Z,38.80
2019-05-03T20:33:04.837Z,38.73
2019-05-03T20:35:35.631Z,38.70
2019-05-03T20:38:05.435Z,38.67
2019-05-03T20:40:35.204Z,38.67
2019-05-03T20:43:09.465Z,38.75
2019-05-03T20:45:41.638Z,38.70
2019-05-03T20:48:14.528Z,38.62
2019-05-03T20:50:44.753Z,38.77
2019-05-03T20:53:14.412Z,38.68
2019-05-03T20:55:45.133Z,38.68
2019-05-03T20:58:14.861Z,38.76
2019-05-03T21:00:45.135Z,38.87
2019-05-03T21:03:15.305Z,38.63
2019-05-03T21:05:45.029Z,38.79
2019-05-03T21:08:14.907Z,38.97
2019-05-03T21:10:45.208Z,39.23
2019-05-03T21:13:14.820Z,39.36
2019-05-03T21:15:46.126Z,39.47
2019-05-03T21:18:20.492Z,39.70
2019-05-03T21:20:51.737Z,39.80
2019-05-03T21:23:24.914Z,40.24
2019-05-03T21:26:12.341Z,40.48
2019-05-03T21:28:36.715Z,40.76
2019-05-03T21:31:07.097Z,40.74
2019-05-03T21:33:36.796Z,41.04
2019-05-03T21:36:06.560Z,41.06
2019-05-03T21:38:37.751Z,41.25
2019-05-03T21:41:07.446Z,41.50
2019-05-03T21:43:37.705Z,41.67
2019-05-03T21:46:09.037Z,41.91
2019-05-03T21:48:55.343Z,42.22
2019-05-03T21:51:25.137Z,42.44
2019-05-03T21:53:54.780Z,42.54
2019-05-03T21:56:24.965Z,42.56
2019-05-03T21:58:55.288Z,42.68
2019-05-03T22:01:25.935Z,42.74
2019-05-03T22:03:55.808Z,42.63
2019-05-03T22:06:25.408Z,42.60
2019-05-03T22:08:55.517Z,42.68
2019-05-03T22:11:25.380Z,42.92
2019-05-03T22:13:57.344Z,43.35
2019-05-03T22:16:45.177Z,43.62
2019-05-03T22:19:19.052Z,43.66
2019-05-03T22:21:47.785Z,43.62
2019-05-03T22:24:19.009Z,43.81
2019-05-03T22:26:58.871Z,43.64
2019-05-03T22:29:28.501Z,43.88
2019-05-03T22:31:58.143Z,43.80
2019-05-03T22:34:27.731Z,43.46
2019-05-03T22:36:57.396Z,43.42
2019-05-03T22:39:27.015Z,43.25
2019-05-03T22:41:58.287Z,42.91
2019-05-03T22:44:27.903Z,42.69
2019-05-03T22:46:59.656Z,42.37
2019-05-03T22:49:29.270Z,42.05
2019-05-03T22:51:58.943Z,41.93
2019-05-03T22:54:28.649Z,41.82
2019-05-03T22:56:58.264Z,41.90
2019-05-03T22:59:27.918Z,41.92
2019-05-03T23:01:57.498Z,42.00
2019-05-03T23:04:27.161Z,42.38
2019-05-03T23:06:56.792Z,42.58
2019-05-03T23:09:28.096Z,42.92
2019-05-03T23:11:57.772Z,42.93
2019-05-03T23:14:27.400Z,43.11
2019-05-03T23:16:57.077Z,43.06
2019-05-03T23:19:26.847Z,42.82
2019-05-03T23:21:58.059Z,42.73
2019-05-03T23:24:27.648Z,42.72
2019-05-03T23:26:57.252Z,42.78
2019-05-03T23:29:26.842Z,42.82
2019-05-03T23:31:56.430Z,42.86
2019-05-03T23:34:26.021Z,42.89
2019-05-03T23:36:55.625Z,42.85
2019-05-03T23:39:25.230Z,42.72
2019-05-03T23:41:55.707Z,42.69
2019-05-03T23:44:25.603Z,42.53
2019-05-03T23:46:56.842Z,42.58
2019-05-03T23:49:26.434Z,42.54
2019-05-03T23:51:57.711Z,42.55
2019-05-03T23:54:27.303Z,42.65
2019-05-03T23:56:56.986Z,42.68
2019-05-03T23:59:26.589Z,42.76
